sensor_id;sensor_type;location;lat;lon;timestamp;P1;durP1;ratioP1;P2;durP2;ratioP2
69334;SDS011;56477;52.742;15.242;2023-03-25T00:02:00;8.63;;;4.00;;
69334;SDS011;56477;52.742;15.242;2023-03-25T00:04:26;15.07;;;7.18;;
69334;SDS011;56477;52.742;15.242;2023-03-25T00:06:55;18.00;;;6.93;;
69334;SDS011;56477;52.742;15.242;2023-03-25T00:09:22;13.23;;;6.32;;
69334;SDS011;56477;52.742;15.242;2023-03-25T00:11:51;12.98;;;5.35;;
69334;SDS011;56477;52.742;15.242;2023-03-25T00:14:17;13.07;;;5.75;;
69334;SDS011;56477;52.742;15.242;2023-03-25T00:16:43;9.80;;;4.87;;
69334;SDS011;56477;52.742;15.242;2023-03-25T00:19:13;11.32;;;5.00;;
69334;SDS011;56477;52.742;15.242;2023-03-25T00:21:42;8.18;;;3.22;;
69334;SDS011;56477;52.742;15.242;2023-03-25T00:24:09;10.88;;;3.88;;
69334;SDS011;56477;52.742;15.242;2023-03-25T00:26:45;13.52;;;5.38;;
69334;SDS011;56477;52.742;15.242;2023-03-25T00:29:14;6.80;;;2.57;;
69334;SDS011;56477;52.742;15.242;2023-03-25T00:31:41;12.57;;;4.97;;
69334;SDS011;56477;52.742;15.242;2023-03-25T00:34:07;10.80;;;4.28;;
69334;SDS011;56477;52.742;15.242;2023-03-25T00:36:34;10.05;;;4.45;;
69334;SDS011;56477;52.742;15.242;2023-03-25T00:39:03;9.82;;;3.70;;
69334;SDS011;56477;52.742;15.242;2023-03-25T00:41:29;9.07;;;4.13;;
69334;SDS011;56477;52.742;15.242;2023-03-25T00:43:57;10.27;;;3.97;;
69334;SDS011;56477;52.742;15.242;2023-03-25T00:46:25;7.68;;;3.17;;
69334;SDS011;56477;52.742;15.242;2023-03-25T00:48:52;8.70;;;3.67;;
69334;SDS011;56477;52.742;15.242;2023-03-25T00:51:19;11.65;;;4.03;;
69334;SDS011;56477;52.742;15.242;2023-03-25T00:53:49;9.93;;;3.00;;
69334;SDS011;56477;52.742;15.242;2023-03-25T00:56:18;7.72;;;2.58;;
69334;SDS011;56477;52.742;15.242;2023-03-25T00:58:45;9.75;;;3.80;;
69334;SDS011;56477;52.742;15.242;2023-03-25T01:01:11;9.50;;;3.08;;
69334;SDS011;56477;52.742;15.242;2023-03-25T01:03:40;8.00;;;3.57;;
69334;SDS011;56477;52.742;15.242;2023-03-25T01:06:15;9.63;;;3.08;;
69334;SDS011;56477;52.742;15.242;2023-03-25T01:08:43;7.28;;;3.42;;
69334;SDS011;56477;52.742;15.242;2023-03-25T01:11:19;9.15;;;3.33;;
69334;SDS011;56477;52.742;15.242;2023-03-25T01:13:48;11.70;;;2.85;;
69334;SDS011;56477;52.742;15.242;2023-03-25T01:16:14;5.67;;;1.93;;
69334;SDS011;56477;52.742;15.242;2023-03-25T01:18:40;7.70;;;2.97;;
69334;SDS011;56477;52.742;15.242;2023-03-25T01:21:06;7.57;;;2.80;;
69334;SDS011;56477;52.742;15.242;2023-03-25T01:23:33;5.38;;;1.92;;
69334;SDS011;56477;52.742;15.242;2023-03-25T01:25:59;8.37;;;2.37;;
69334;SDS011;56477;52.742;15.242;2023-03-25T01:28:26;6.53;;;1.65;;
69334;SDS011;56477;52.742;15.242;2023-03-25T01:31:01;7.15;;;2.83;;
69334;SDS011;56477;52.742;15.242;2023-03-25T01:33:29;5.38;;;2.10;;
69334;SDS011;56477;52.742;15.242;2023-03-25T01:35:57;5.15;;;2.15;;
69334;SDS011;56477;52.742;15.242;2023-03-25T01:38:24;5.27;;;1.93;;
69334;SDS011;56477;52.742;15.242;2023-03-25T01:40:51;8.70;;;2.35;;
69334;SDS011;56477;52.742;15.242;2023-03-25T01:43:18;7.55;;;2.95;;
69334;SDS011;56477;52.742;15.242;2023-03-25T01:45:45;6.63;;;2.95;;
69334;SDS011;56477;52.742;15.242;2023-03-25T01:48:17;4.63;;;1.92;;
69334;SDS011;56477;52.742;15.242;2023-03-25T01:50:53;6.77;;;1.70;;
69334;SDS011;56477;52.742;15.242;2023-03-25T01:53:28;10.73;;;2.72;;
69334;SDS011;56477;52.742;15.242;2023-03-25T01:55:55;5.28;;;1.92;;
69334;SDS011;56477;52.742;15.242;2023-03-25T01:58:23;3.97;;;1.33;;
69334;SDS011;56477;52.742;15.242;2023-03-25T02:00:51;5.00;;;1.73;;
69334;SDS011;56477;52.742;15.242;2023-03-25T02:03:20;4.73;;;2.30;;
69334;SDS011;56477;52.742;15.242;2023-03-25T02:05:59;4.88;;;1.67;;
69334;SDS011;56477;52.742;15.242;2023-03-25T02:08:34;6.20;;;3.00;;
69334;SDS011;56477;52.742;15.242;2023-03-25T02:11:04;6.68;;;1.70;;
69334;SDS011;56477;52.742;15.242;2023-03-25T02:13:31;4.70;;;1.77;;
69334;SDS011;56477;52.742;15.242;2023-03-25T02:16:07;3.63;;;1.07;;
69334;SDS011;56477;52.742;15.242;2023-03-25T02:22:04;4.20;;;1.83;;
69334;SDS011;56477;52.742;15.242;2023-03-25T02:27:48;3.83;;;1.55;;
69334;SDS011;56477;52.742;15.242;2023-03-25T02:38:22;5.38;;;2.15;;
69334;SDS011;56477;52.742;15.242;2023-03-25T02:43:52;5.45;;;1.60;;
69334;SDS011;56477;52.742;15.242;2023-03-25T02:46:23;4.88;;;1.30;;
69334;SDS011;56477;52.742;15.242;2023-03-25T02:48:55;6.30;;;1.35;;
69334;SDS011;56477;52.742;15.242;2023-03-25T02:51:28;4.22;;;1.55;;
69334;SDS011;56477;52.742;15.242;2023-03-25T02:53:57;3.53;;;1.40;;
69334;SDS011;56477;52.742;15.242;2023-03-25T02:56:28;3.97;;;1.80;;
69334;SDS011;56477;52.742;15.242;2023-03-25T02:58:57;3.10;;;1.20;;
69334;SDS011;56477;52.742;15.242;2023-03-25T03:01:25;3.58;;;1.15;;
69334;SDS011;56477;52.742;15.242;2023-03-25T03:03:51;5.30;;;1.50;;
69334;SDS011;56477;52.742;15.242;2023-03-25T03:06:18;5.70;;;1.40;;
69334;SDS011;56477;52.742;15.242;2023-03-25T03:11:27;4.65;;;1.80;;
69334;SDS011;56477;52.742;15.242;2023-03-25T03:13:59;2.92;;;1.05;;
69334;SDS011;56477;52.742;15.242;2023-03-25T03:24:47;5.05;;;1.77;;
69334;SDS011;56477;52.742;15.242;2023-03-25T03:27:20;6.85;;;3.38;;
69334;SDS011;56477;52.742;15.242;2023-03-25T03:29:54;8.83;;;3.27;;
69334;SDS011;56477;52.742;15.242;2023-03-25T03:32:34;7.85;;;3.58;;
69334;SDS011;56477;52.742;15.242;2023-03-25T03:35:09;6.70;;;2.72;;
69334;SDS011;56477;52.742;15.242;2023-03-25T03:37:38;3.97;;;1.40;;
69334;SDS011;56477;52.742;15.242;2023-03-25T03:40:12;10.05;;;2.75;;
69334;SDS011;56477;52.742;15.242;2023-03-25T03:42:50;3.60;;;1.80;;
69334;SDS011;56477;52.742;15.242;2023-03-25T03:45:28;8.98;;;3.30;;
69334;SDS011;56477;52.742;15.242;2023-03-25T03:47:58;7.88;;;3.08;;
69334;SDS011;56477;52.742;15.242;2023-03-25T03:50:31;8.35;;;3.53;;
69334;SDS011;56477;52.742;15.242;2023-03-25T03:53:05;8.52;;;3.20;;
69334;SDS011;56477;52.742;15.242;2023-03-25T03:55:38;7.93;;;2.27;;
69334;SDS011;56477;52.742;15.242;2023-03-25T03:58:18;7.40;;;2.97;;
69334;SDS011;56477;52.742;15.242;2023-03-25T04:03:42;6.68;;;2.75;;
69334;SDS011;56477;52.742;15.242;2023-03-25T04:06:26;11.30;;;2.78;;
69334;SDS011;56477;52.742;15.242;2023-03-25T04:09:02;9.27;;;2.83;;
69334;SDS011;56477;52.742;15.242;2023-03-25T04:14:41;5.35;;;2.30;;
69334;SDS011;56477;52.742;15.242;2023-03-25T04:17:07;6.03;;;2.60;;
69334;SDS011;56477;52.742;15.242;2023-03-25T04:19:33;12.63;;;3.20;;
69334;SDS011;56477;52.742;15.242;2023-03-25T04:22:02;7.20;;;2.90;;
69334;SDS011;56477;52.742;15.242;2023-03-25T04:24:29;6.90;;;2.80;;
69334;SDS011;56477;52.742;15.242;2023-03-25T04:26:59;7.53;;;2.97;;
69334;SDS011;56477;52.742;15.242;2023-03-25T04:29:29;9.02;;;3.53;;
69334;SDS011;56477;52.742;15.242;2023-03-25T04:31:56;5.97;;;2.90;;
69334;SDS011;56477;52.742;15.242;2023-03-25T04:34:23;9.63;;;3.20;;
69334;SDS011;56477;52.742;15.242;2023-03-25T04:36:49;10.85;;;3.13;;
69334;SDS011;56477;52.742;15.242;2023-03-25T04:39:15;9.75;;;3.72;;
69334;SDS011;56477;52.742;15.242;2023-03-25T04:41:48;6.03;;;2.80;;
69334;SDS011;56477;52.742;15.242;2023-03-25T04:44:15;6.47;;;2.10;;
69334;SDS011;56477;52.742;15.242;2023-03-25T04:46:41;7.60;;;2.97;;
69334;SDS011;56477;52.742;15.242;2023-03-25T04:49:08;8.50;;;3.33;;
69334;SDS011;56477;52.742;15.242;2023-03-25T04:51:43;8.55;;;2.60;;
69334;SDS011;56477;52.742;15.242;2023-03-25T04:54:10;5.47;;;2.17;;
69334;SDS011;56477;52.742;15.242;2023-03-25T04:56:36;7.30;;;2.65;;
69334;SDS011;56477;52.742;15.242;2023-03-25T04:59:04;7.75;;;2.40;;
69334;SDS011;56477;52.742;15.242;2023-03-25T05:01:30;8.05;;;3.20;;
69334;SDS011;56477;52.742;15.242;2023-03-25T05:04:02;8.32;;;3.20;;
69334;SDS011;56477;52.742;15.242;2023-03-25T05:06:36;9.00;;;2.70;;
69334;SDS011;56477;52.742;15.242;2023-03-25T05:09:04;5.70;;;2.33;;
69334;SDS011;56477;52.742;15.242;2023-03-25T05:11:32;6.95;;;3.15;;
69334;SDS011;56477;52.742;15.242;2023-03-25T05:13:59;6.05;;;2.33;;
69334;SDS011;56477;52.742;15.242;2023-03-25T05:16:25;7.67;;;2.70;;
69334;SDS011;56477;52.742;15.242;2023-03-25T05:18:51;7.10;;;2.33;;
69334;SDS011;56477;52.742;15.242;2023-03-25T05:21:17;8.02;;;3.25;;
69334;SDS011;56477;52.742;15.242;2023-03-25T05:23:43;5.00;;;1.50;;
69334;SDS011;56477;52.742;15.242;2023-03-25T05:26:09;7.32;;;1.73;;
69334;SDS011;56477;52.742;15.242;2023-03-25T05:28:37;7.97;;;2.97;;
69334;SDS011;56477;52.742;15.242;2023-03-25T05:31:04;7.85;;;2.60;;
69334;SDS011;56477;52.742;15.242;2023-03-25T05:33:37;5.45;;;1.65;;
69334;SDS011;56477;52.742;15.242;2023-03-25T05:36:11;6.40;;;2.10;;
69334;SDS011;56477;52.742;15.242;2023-03-25T05:38:38;5.53;;;2.05;;
69334;SDS011;56477;52.742;15.242;2023-03-25T05:41:12;8.73;;;2.60;;
69334;SDS011;56477;52.742;15.242;2023-03-25T05:43:41;6.93;;;2.63;;
69334;SDS011;56477;52.742;15.242;2023-03-25T05:46:12;6.95;;;2.22;;
69334;SDS011;56477;52.742;15.242;2023-03-25T05:48:39;5.88;;;1.25;;
69334;SDS011;56477;52.742;15.242;2023-03-25T05:51:10;6.05;;;2.70;;
69334;SDS011;56477;52.742;15.242;2023-03-25T05:53:47;2.37;;;1.10;;
69334;SDS011;56477;52.742;15.242;2023-03-25T05:56:20;9.45;;;2.95;;
69334;SDS011;56477;52.742;15.242;2023-03-25T05:58:49;10.88;;;2.72;;
69334;SDS011;56477;52.742;15.242;2023-03-25T06:01:16;4.88;;;2.10;;
69334;SDS011;56477;52.742;15.242;2023-03-25T06:03:44;5.40;;;1.50;;
69334;SDS011;56477;52.742;15.242;2023-03-25T06:06:11;4.47;;;1.60;;
69334;SDS011;56477;52.742;15.242;2023-03-25T06:08:47;7.18;;;2.28;;
69334;SDS011;56477;52.742;15.242;2023-03-25T06:11:17;4.70;;;1.70;;
69334;SDS011;56477;52.742;15.242;2023-03-25T06:13:45;7.15;;;2.13;;
69334;SDS011;56477;52.742;15.242;2023-03-25T06:16:15;6.33;;;2.33;;
69334;SDS011;56477;52.742;15.242;2023-03-25T06:18:47;4.97;;;1.65;;
69334;SDS011;56477;52.742;15.242;2023-03-25T06:21:19;10.30;;;2.30;;
69334;SDS011;56477;52.742;15.242;2023-03-25T06:23:45;8.52;;;2.47;;
69334;SDS011;56477;52.742;15.242;2023-03-25T06:26:15;5.95;;;1.42;;
69334;SDS011;56477;52.742;15.242;2023-03-25T06:28:42;4.13;;;1.70;;
69334;SDS011;56477;52.742;15.242;2023-03-25T06:31:20;3.55;;;1.33;;
69334;SDS011;56477;52.742;15.242;2023-03-25T06:33:51;5.22;;;2.30;;
69334;SDS011;56477;52.742;15.242;2023-03-25T06:36:18;3.70;;;1.55;;
69334;SDS011;56477;52.742;15.242;2023-03-25T06:38:48;3.88;;;1.48;;
69334;SDS011;56477;52.742;15.242;2023-03-25T06:41:15;4.87;;;1.50;;
69334;SDS011;56477;52.742;15.242;2023-03-25T06:43:45;4.25;;;1.58;;
69334;SDS011;56477;52.742;15.242;2023-03-25T06:46:11;6.07;;;1.42;;
69334;SDS011;56477;52.742;15.242;2023-03-25T06:48:38;4.18;;;1.67;;
69334;SDS011;56477;52.742;15.242;2023-03-25T06:51:04;5.75;;;2.15;;
69334;SDS011;56477;52.742;15.242;2023-03-25T06:53:30;7.07;;;2.73;;
69334;SDS011;56477;52.742;15.242;2023-03-25T06:55:57;6.88;;;2.53;;
69334;SDS011;56477;52.742;15.242;2023-03-25T06:58:23;7.22;;;3.40;;
69334;SDS011;56477;52.742;15.242;2023-03-25T07:00:53;9.90;;;3.78;;
69334;SDS011;56477;52.742;15.242;2023-03-25T07:03:19;7.88;;;3.22;;
69334;SDS011;56477;52.742;15.242;2023-03-25T07:05:46;8.33;;;3.00;;
69334;SDS011;56477;52.742;15.242;2023-03-25T07:08:13;8.75;;;3.28;;
69334;SDS011;56477;52.742;15.242;2023-03-25T07:10:39;8.80;;;2.45;;
69334;SDS011;56477;52.742;15.242;2023-03-25T07:13:07;9.30;;;2.90;;
69334;SDS011;56477;52.742;15.242;2023-03-25T07:15:33;7.40;;;3.10;;
69334;SDS011;56477;52.742;15.242;2023-03-25T07:17:59;3.80;;;1.47;;
69334;SDS011;56477;52.742;15.242;2023-03-25T07:20:25;7.78;;;3.10;;
69334;SDS011;56477;52.742;15.242;2023-03-25T07:22:55;11.73;;;4.55;;
69334;SDS011;56477;52.742;15.242;2023-03-25T07:25:20;10.10;;;3.25;;
69334;SDS011;56477;52.742;15.242;2023-03-25T07:27:47;5.77;;;2.10;;
69334;SDS011;56477;52.742;15.242;2023-03-25T07:30:13;4.72;;;1.38;;
69334;SDS011;56477;52.742;15.242;2023-03-25T07:32:39;7.72;;;2.17;;
69334;SDS011;56477;52.742;15.242;2023-03-25T07:35:05;7.13;;;2.80;;
69334;SDS011;56477;52.742;15.242;2023-03-25T07:37:34;5.10;;;2.10;;
69334;SDS011;56477;52.742;15.242;2023-03-25T07:39:59;5.15;;;1.80;;
69334;SDS011;56477;52.742;15.242;2023-03-25T07:42:25;4.82;;;1.98;;
69334;SDS011;56477;52.742;15.242;2023-03-25T07:44:51;6.43;;;2.10;;
69334;SDS011;56477;52.742;15.242;2023-03-25T07:47:17;2.63;;;1.10;;
69334;SDS011;56477;52.742;15.242;2023-03-25T07:49:43;6.38;;;2.90;;
69334;SDS011;56477;52.742;15.242;2023-03-25T07:52:11;3.28;;;1.65;;
69334;SDS011;56477;52.742;15.242;2023-03-25T07:54:37;3.97;;;1.67;;
69334;SDS011;56477;52.742;15.242;2023-03-25T07:57:03;2.55;;;0.95;;
69334;SDS011;56477;52.742;15.242;2023-03-25T07:59:28;3.85;;;0.98;;
69334;SDS011;56477;52.742;15.242;2023-03-25T08:01:55;2.30;;;1.23;;
69334;SDS011;56477;52.742;15.242;2023-03-25T08:04:21;3.65;;;1.20;;
69334;SDS011;56477;52.742;15.242;2023-03-25T08:06:47;3.33;;;1.38;;
69334;SDS011;56477;52.742;15.242;2023-03-25T08:09:13;2.27;;;0.97;;
69334;SDS011;56477;52.742;15.242;2023-03-25T08:11:39;2.05;;;0.52;;
69334;SDS011;56477;52.742;15.242;2023-03-25T08:14:05;3.15;;;0.90;;
69334;SDS011;56477;52.742;15.242;2023-03-25T08:16:31;2.35;;;0.43;;
69334;SDS011;56477;52.742;15.242;2023-03-25T08:18:57;1.80;;;0.37;;
69334;SDS011;56477;52.742;15.242;2023-03-25T08:21:23;2.60;;;0.65;;
69334;SDS011;56477;52.742;15.242;2023-03-25T08:23:55;4.22;;;0.60;;
69334;SDS011;56477;52.742;15.242;2023-03-25T08:26:32;2.42;;;0.60;;
69334;SDS011;56477;52.742;15.242;2023-03-25T08:28:59;3.57;;;0.53;;
69334;SDS011;56477;52.742;15.242;2023-03-25T08:31:28;2.17;;;0.65;;
69334;SDS011;56477;52.742;15.242;2023-03-25T08:34:01;2.35;;;0.73;;
69334;SDS011;56477;52.742;15.242;2023-03-25T08:36:29;2.97;;;0.50;;
69334;SDS011;56477;52.742;15.242;2023-03-25T08:38:55;3.42;;;0.93;;
69334;SDS011;56477;52.742;15.242;2023-03-25T08:41:21;3.40;;;1.20;;
69334;SDS011;56477;52.742;15.242;2023-03-25T08:43:47;2.28;;;0.68;;
69334;SDS011;56477;52.742;15.242;2023-03-25T08:46:13;2.60;;;0.60;;
69334;SDS011;56477;52.742;15.242;2023-03-25T08:48:39;2.67;;;0.60;;
69334;SDS011;56477;52.742;15.242;2023-03-25T08:51:05;3.38;;;0.60;;
69334;SDS011;56477;52.742;15.242;2023-03-25T08:53:31;4.10;;;0.70;;
69334;SDS011;56477;52.742;15.242;2023-03-25T08:55:58;3.03;;;0.73;;
69334;SDS011;56477;52.742;15.242;2023-03-25T08:58:24;4.00;;;0.70;;
69334;SDS011;56477;52.742;15.242;2023-03-25T09:00:51;1.30;;;0.35;;
69334;SDS011;56477;52.742;15.242;2023-03-25T09:03:20;2.38;;;0.47;;
69334;SDS011;56477;52.742;15.242;2023-03-25T09:05:47;2.25;;;0.57;;
69334;SDS011;56477;52.742;15.242;2023-03-25T09:08:13;3.80;;;1.10;;
69334;SDS011;56477;52.742;15.242;2023-03-25T09:10:40;3.13;;;0.73;;
69334;SDS011;56477;52.742;15.242;2023-03-25T09:13:06;3.42;;;0.60;;
69334;SDS011;56477;52.742;15.242;2023-03-25T09:15:32;3.22;;;0.88;;
69334;SDS011;56477;52.742;15.242;2023-03-25T09:17:58;2.17;;;0.60;;
69334;SDS011;56477;52.742;15.242;2023-03-25T09:20:25;4.97;;;0.80;;
69334;SDS011;56477;52.742;15.242;2023-03-25T09:22:50;3.03;;;0.95;;
69334;SDS011;56477;52.742;15.242;2023-03-25T09:25:17;2.35;;;0.65;;
69334;SDS011;56477;52.742;15.242;2023-03-25T09:27:43;3.10;;;0.73;;
69334;SDS011;56477;52.742;15.242;2023-03-25T09:30:09;1.77;;;0.73;;
69334;SDS011;56477;52.742;15.242;2023-03-25T09:32:35;3.17;;;0.60;;
69334;SDS011;56477;52.742;15.242;2023-03-25T09:35:01;4.50;;;0.70;;
69334;SDS011;56477;52.742;15.242;2023-03-25T09:37:27;3.15;;;0.80;;
69334;SDS011;56477;52.742;15.242;2023-03-25T09:39:53;1.85;;;0.80;;
69334;SDS011;56477;52.742;15.242;2023-03-25T09:50:23;3.67;;;1.38;;
69334;SDS011;56477;52.742;15.242;2023-03-25T09:55:23;3.60;;;0.93;;
69334;SDS011;56477;52.742;15.242;2023-03-25T09:58:39;1.73;;;0.63;;
69334;SDS011;56477;52.742;15.242;2023-03-25T10:04:22;3.35;;;1.52;;
69334;SDS011;56477;52.742;15.242;2023-03-25T10:12:24;4.32;;;0.70;;
69334;SDS011;56477;52.742;15.242;2023-03-25T10:15:31;2.67;;;0.80;;
69334;SDS011;56477;52.742;15.242;2023-03-25T10:29:04;2.78;;;0.75;;
69334;SDS011;56477;52.742;15.242;2023-03-25T10:31:33;3.58;;;0.90;;
69334;SDS011;56477;52.742;15.242;2023-03-25T10:34:05;4.67;;;1.00;;
69334;SDS011;56477;52.742;15.242;2023-03-25T10:36:43;3.15;;;1.00;;
69334;SDS011;56477;52.742;15.242;2023-03-25T10:39:23;2.70;;;0.88;;
69334;SDS011;56477;52.742;15.242;2023-03-25T10:42:00;4.13;;;1.08;;
69334;SDS011;56477;52.742;15.242;2023-03-25T10:44:37;2.15;;;1.10;;
69334;SDS011;56477;52.742;15.242;2023-03-25T10:47:03;3.03;;;1.33;;
69334;SDS011;56477;52.742;15.242;2023-03-25T10:49:33;5.38;;;0.95;;
69334;SDS011;56477;52.742;15.242;2023-03-25T10:52:01;3.00;;;0.70;;
69334;SDS011;56477;52.742;15.242;2023-03-25T10:54:30;2.20;;;0.73;;
69334;SDS011;56477;52.742;15.242;2023-03-25T10:57:00;1.73;;;0.37;;
69334;SDS011;56477;52.742;15.242;2023-03-25T11:02:03;1.50;;;0.90;;
69334;SDS011;56477;52.742;15.242;2023-03-25T11:04:43;4.05;;;0.93;;
69334;SDS011;56477;52.742;15.242;2023-03-25T11:07:17;2.30;;;1.20;;
69334;SDS011;56477;52.742;15.242;2023-03-25T11:09:45;1.60;;;0.67;;
69334;SDS011;56477;52.742;15.242;2023-03-25T11:12:12;1.83;;;0.60;;
69334;SDS011;56477;52.742;15.242;2023-03-25T11:14:43;2.33;;;0.68;;
69334;SDS011;56477;52.742;15.242;2023-03-25T11:17:10;3.85;;;0.57;;
69334;SDS011;56477;52.742;15.242;2023-03-25T11:19:45;3.53;;;0.50;;
69334;SDS011;56477;52.742;15.242;2023-03-25T11:22:18;1.40;;;0.55;;
69334;SDS011;56477;52.742;15.242;2023-03-25T11:24:49;1.65;;;0.50;;
69334;SDS011;56477;52.742;15.242;2023-03-25T11:27:22;2.25;;;0.30;;
69334;SDS011;56477;52.742;15.242;2023-03-25T11:29:51;1.30;;;0.35;;
69334;SDS011;56477;52.742;15.242;2023-03-25T11:32:23;2.40;;;0.50;;
69334;SDS011;56477;52.742;15.242;2023-03-25T11:35:01;2.85;;;0.60;;
69334;SDS011;56477;52.742;15.242;2023-03-25T11:37:36;1.85;;;0.30;;
69334;SDS011;56477;52.742;15.242;2023-03-25T11:40:15;3.67;;;1.00;;
69334;SDS011;56477;52.742;15.242;2023-03-25T11:42:50;5.07;;;0.90;;
69334;SDS011;56477;52.742;15.242;2023-03-25T11:45:19;2.40;;;0.77;;
69334;SDS011;56477;52.742;15.242;2023-03-25T11:47:48;2.58;;;0.70;;
69334;SDS011;56477;52.742;15.242;2023-03-25T11:50:25;2.95;;;0.65;;
69334;SDS011;56477;52.742;15.242;2023-03-25T11:52:57;6.10;;;1.45;;
69334;SDS011;56477;52.742;15.242;2023-03-25T11:55:36;3.70;;;1.20;;
69334;SDS011;56477;52.742;15.242;2023-03-25T11:58:12;3.43;;;1.10;;
69334;SDS011;56477;52.742;15.242;2023-03-25T12:01:00;2.90;;;1.08;;
69334;SDS011;56477;52.742;15.242;2023-03-25T12:03:29;9.05;;;4.30;;
69334;SDS011;56477;52.742;15.242;2023-03-25T12:08:22;2.93;;;0.77;;
69334;SDS011;56477;52.742;15.242;2023-03-25T12:10:56;3.03;;;1.00;;
69334;SDS011;56477;52.742;15.242;2023-03-25T12:16:18;3.40;;;1.20;;
69334;SDS011;56477;52.742;15.242;2023-03-25T12:33:07;1.98;;;1.08;;
69334;SDS011;56477;52.742;15.242;2023-03-25T12:35:54;1.33;;;0.87;;
69334;SDS011;56477;52.742;15.242;2023-03-25T12:47:38;2.85;;;0.90;;
69334;SDS011;56477;52.742;15.242;2023-03-25T12:53:32;2.30;;;0.80;;
69334;SDS011;56477;52.742;15.242;2023-03-25T12:59:39;1.90;;;0.70;;
69334;SDS011;56477;52.742;15.242;2023-03-25T13:05:16;1.10;;;0.73;;
69334;SDS011;56477;52.742;15.242;2023-03-25T13:07:50;1.83;;;0.80;;
69334;SDS011;56477;52.742;15.242;2023-03-25T13:10:24;3.40;;;2.13;;
69334;SDS011;56477;52.742;15.242;2023-03-25T13:12:56;2.88;;;0.60;;
69334;SDS011;56477;52.742;15.242;2023-03-25T13:18:02;1.80;;;0.70;;
69334;SDS011;56477;52.742;15.242;2023-03-25T13:20:35;1.48;;;0.60;;
69334;SDS011;56477;52.742;15.242;2023-03-25T13:23:05;3.17;;;0.50;;
69334;SDS011;56477;52.742;15.242;2023-03-25T13:28:31;2.58;;;1.02;;
69334;SDS011;56477;52.742;15.242;2023-03-25T13:31:07;2.50;;;1.10;;
69334;SDS011;56477;52.742;15.242;2023-03-25T13:34:25;2.08;;;0.60;;
69334;SDS011;56477;52.742;15.242;2023-03-25T13:36:42;1.15;;;0.40;;
69334;SDS011;56477;52.742;15.242;2023-03-25T13:39:19;2.63;;;0.40;;
69334;SDS011;56477;52.742;15.242;2023-03-25T13:41:53;2.58;;;0.50;;
69334;SDS011;56477;52.742;15.242;2023-03-25T13:44:29;1.80;;;0.20;;
69334;SDS011;56477;52.742;15.242;2023-03-25T13:53:04;3.10;;;1.30;;
69334;SDS011;56477;52.742;15.242;2023-03-25T13:55:38;4.40;;;1.20;;
69334;SDS011;56477;52.742;15.242;2023-03-25T13:58:25;2.93;;;0.80;;
69334;SDS011;56477;52.742;15.242;2023-03-25T14:14:38;2.85;;;0.68;;
69334;SDS011;56477;52.742;15.242;2023-03-25T14:17:10;1.27;;;0.60;;
69334;SDS011;56477;52.742;15.242;2023-03-25T14:19:38;1.63;;;0.38;;
69334;SDS011;56477;52.742;15.242;2023-03-25T14:22:16;1.83;;;0.35;;
69334;SDS011;56477;52.742;15.242;2023-03-25T14:24:45;1.53;;;0.67;;
69334;SDS011;56477;52.742;15.242;2023-03-25T14:27:46;1.77;;;0.47;;
69334;SDS011;56477;52.742;15.242;2023-03-25T14:30:27;1.40;;;0.50;;
69334;SDS011;56477;52.742;15.242;2023-03-25T14:32:55;1.75;;;0.50;;
69334;SDS011;56477;52.742;15.242;2023-03-25T14:53:57;2.97;;;0.52;;
69334;SDS011;56477;52.742;15.242;2023-03-25T14:56:36;0.93;;;0.52;;
69334;SDS011;56477;52.742;15.242;2023-03-25T14:59:15;2.42;;;0.30;;
69334;SDS011;56477;52.742;15.242;2023-03-25T15:01:43;2.42;;;0.38;;
69334;SDS011;56477;52.742;15.242;2023-03-25T15:06:43;1.38;;;0.45;;
69334;SDS011;56477;52.742;15.242;2023-03-25T15:09:12;7.72;;;0.68;;
69334;SDS011;56477;52.742;15.242;2023-03-25T15:11:40;1.45;;;0.40;;
69334;SDS011;56477;52.742;15.242;2023-03-25T15:14:13;2.13;;;0.95;;
69334;SDS011;56477;52.742;15.242;2023-03-25T15:19:13;1.05;;;0.35;;
69334;SDS011;56477;52.742;15.242;2023-03-25T15:24:36;1.60;;;0.47;;
69334;SDS011;56477;52.742;15.242;2023-03-25T15:49:31;1.33;;;0.50;;
69334;SDS011;56477;52.742;15.242;2023-03-25T15:54:56;1.17;;;0.40;;
69334;SDS011;56477;52.742;15.242;2023-03-25T15:57:33;0.97;;;0.10;;
69334;SDS011;56477;52.742;15.242;2023-03-25T16:02:48;1.60;;;0.50;;
69334;SDS011;56477;52.742;15.242;2023-03-25T16:05:18;1.33;;;0.35;;
69334;SDS011;56477;52.742;15.242;2023-03-25T16:07:45;0.88;;;0.40;;
69334;SDS011;56477;52.742;15.242;2023-03-25T16:12:47;1.75;;;0.40;;
69334;SDS011;56477;52.742;15.242;2023-03-25T16:15:18;2.60;;;0.73;;
69334;SDS011;56477;52.742;15.242;2023-03-25T16:17:51;3.70;;;1.27;;
69334;SDS011;56477;52.742;15.242;2023-03-25T16:20:20;2.28;;;0.43;;
69334;SDS011;56477;52.742;15.242;2023-03-25T16:22:50;1.80;;;0.30;;
69334;SDS011;56477;52.742;15.242;2023-03-25T16:25:22;3.50;;;0.68;;
69334;SDS011;56477;52.742;15.242;2023-03-25T16:28:03;2.08;;;0.55;;
69334;SDS011;56477;52.742;15.242;2023-03-25T16:35:44;1.70;;;0.30;;
69334;SDS011;56477;52.742;15.242;2023-03-25T16:38:15;3.65;;;1.20;;
69334;SDS011;56477;52.742;15.242;2023-03-25T16:40:44;3.63;;;0.90;;
69334;SDS011;56477;52.742;15.242;2023-03-25T16:43:21;6.70;;;1.45;;
69334;SDS011;56477;52.742;15.242;2023-03-25T16:45:49;5.63;;;1.83;;
69334;SDS011;56477;52.742;15.242;2023-03-25T16:48:24;2.10;;;0.80;;
69334;SDS011;56477;52.742;15.242;2023-03-25T16:50:53;2.95;;;1.00;;
69334;SDS011;56477;52.742;15.242;2023-03-25T16:53:20;3.13;;;0.80;;
69334;SDS011;56477;52.742;15.242;2023-03-25T16:55:48;2.40;;;0.63;;
69334;SDS011;56477;52.742;15.242;2023-03-25T16:58:24;2.17;;;0.30;;
69334;SDS011;56477;52.742;15.242;2023-03-25T17:00:52;3.10;;;0.70;;
69334;SDS011;56477;52.742;15.242;2023-03-25T17:06:27;5.13;;;1.10;;
69334;SDS011;56477;52.742;15.242;2023-03-25T17:08:54;7.75;;;1.55;;
69334;SDS011;56477;52.742;15.242;2023-03-25T17:11:22;2.80;;;0.98;;
69334;SDS011;56477;52.742;15.242;2023-03-25T17:13:57;4.57;;;1.40;;
69334;SDS011;56477;52.742;15.242;2023-03-25T17:16:39;5.38;;;1.48;;
69334;SDS011;56477;52.742;15.242;2023-03-25T17:19:06;4.50;;;0.90;;
69334;SDS011;56477;52.742;15.242;2023-03-25T17:21:37;3.78;;;1.25;;
69334;SDS011;56477;52.742;15.242;2023-03-25T17:24:25;2.92;;;0.80;;
69334;SDS011;56477;52.742;15.242;2023-03-25T17:27:34;2.23;;;0.70;;
69334;SDS011;56477;52.742;15.242;2023-03-25T17:30:13;3.60;;;1.08;;
69334;SDS011;56477;52.742;15.242;2023-03-25T17:32:44;6.68;;;1.23;;
69334;SDS011;56477;52.742;15.242;2023-03-25T17:35:24;5.15;;;1.67;;
69334;SDS011;56477;52.742;15.242;2023-03-25T17:37:54;8.10;;;3.37;;
69334;SDS011;56477;52.742;15.242;2023-03-25T17:40:25;9.20;;;3.42;;
69334;SDS011;56477;52.742;15.242;2023-03-25T17:42:52;8.57;;;3.08;;
69334;SDS011;56477;52.742;15.242;2023-03-25T17:45:21;11.95;;;3.08;;
69334;SDS011;56477;52.742;15.242;2023-03-25T17:47:48;8.38;;;3.25;;
69334;SDS011;56477;52.742;15.242;2023-03-25T17:50:17;6.67;;;2.57;;
69334;SDS011;56477;52.742;15.242;2023-03-25T17:52:44;9.57;;;3.45;;
69334;SDS011;56477;52.742;15.242;2023-03-25T17:55:10;7.25;;;2.78;;
69334;SDS011;56477;52.742;15.242;2023-03-25T17:57:36;6.60;;;2.80;;
69334;SDS011;56477;52.742;15.242;2023-03-25T18:00:04;5.63;;;2.22;;
69334;SDS011;56477;52.742;15.242;2023-03-25T18:02:45;6.23;;;2.90;;
69334;SDS011;56477;52.742;15.242;2023-03-25T18:05:12;8.27;;;3.00;;
69334;SDS011;56477;52.742;15.242;2023-03-25T18:07:38;10.70;;;4.15;;
69334;SDS011;56477;52.742;15.242;2023-03-25T18:10:09;9.77;;;4.78;;